Hrossey — VSTY6 — position and weather

sailwx.info

Track history (hours):
 
Tides and Currents Weather Stations Pressure Air Temp Water Temp Dewpoint Dewpoint Depression Visibility Wind Speed Wind Dir Waves Ship Positions

Hrossey

Operator: NorthLink Orkey & Shetland Ferries Ltd

Last reported at 2018-Nov-10 23:27 UTC. Time now 2018-Nov-13 07:48 UTC.
Position N 58°59' W 001°22'.

Length 125 m; draft 5.4 m.

Type: Ship. MMSI: 235448000.

Date/timePositionNaut miles runAvg speedWind from/ knotsBaromVisibWave heightAir tempDewpointWater temp
2018-Nov-10 23:27N 58°59' W 001°22'4616.3
2018-Nov-10 20:39N 59°44' W 001°06'1015.0
2018-Nov-10 19:57N 59°55' W 001°04'36 4.4
2018-Nov-10 11:51N 59°19' W 001°00'1916.0
2018-Nov-10 10:39N 58°60' W 000°60'9416.3
2018-Nov-10 04:52N 57°27' W 001°32'1217.1
2018-Nov-10 04:09N 57°18' W 001°47'216.9
2018-Nov-10 04:02N 57°16' W 001°49'816.5
2018-Nov-10 03:32N 57°11' W 001°60'3 6.6
2018-Nov-10 03:00N 57°09' W 002°05'0 0.0
2018-Nov-10 02:31N 57°09' W 002°05'0 0.0
2018-Nov-10 02:01N 57°09' W 002°05'0 0.0
2018-Nov-10 01:31N 57°09' W 002°05'0 0.0
2018-Nov-10 01:01N 57°09' W 002°05'0 0.0
2018-Nov-10 00:31N 57°09' W 002°05'0 0.0
2018-Nov-10 00:01N 57°09' W 002°05'0 0.0
2018-Nov-09 23:30N 57°09' W 002°05'0 0.0
2018-Nov-09 23:01N 57°09' W 002°05'0 0.0
2018-Nov-09 22:31N 57°09' W 002°05'0 0.0
2018-Nov-09 22:01N 57°09' W 002°05'0 0.0
2018-Nov-09 21:31N 57°09' W 002°05'0 0.0
2018-Nov-09 20:58N 57°09' W 002°05'0 0.0
2018-Nov-09 20:28N 57°09' W 002°05'0 0.0
2018-Nov-09 20:00N 57°09' W 002°05'0 0.0
2018-Nov-09 19:28N 57°09' W 002°05'0 0.0
2018-Nov-09 19:01N 57°09' W 002°05'0 0.0
2018-Nov-09 18:31N 57°09' W 002°05'0 0.0
2018-Nov-09 18:01N 57°09' W 002°05'0 0.0
2018-Nov-09 17:31N 57°09' W 002°05'0 0.0
2018-Nov-09 17:00N 57°09' W 002°05'0 0.0
2018-Nov-09 16:30N 57°09' W 002°05'0 0.0
2018-Nov-09 16:01N 57°09' W 002°05'0 0.0
2018-Nov-09 15:31N 57°09' W 002°05'0 0.0
2018-Nov-09 15:01N 57°09' W 002°05'0 0.0
2018-Nov-09 14:31N 57°09' W 002°05'0 0.0
2018-Nov-09 14:01N 57°09' W 002°05'0 0.0
2018-Nov-09 13:31N 57°09' W 002°05'0 0.0
2018-Nov-09 13:01N 57°09' W 002°05'0 0.0
2018-Nov-09 12:30N 57°09' W 002°05'0 0.0
2018-Nov-09 12:01N 57°09' W 002°05'0 0.0
2018-Nov-09 11:30N 57°09' W 002°05'0 0.0
2018-Nov-09 11:01N 57°09' W 002°05'0 0.0
2018-Nov-09 10:31N 57°09' W 002°05'0 0.0
2018-Nov-09 10:01N 57°09' W 002°05'0 0.0
2018-Nov-09 09:30N 57°09' W 002°05'0 0.0
2018-Nov-09 09:01N 57°09' W 002°05'0 0.0
2018-Nov-09 08:31N 57°09' W 002°05'0 0.0
2018-Nov-09 08:01N 57°09' W 002°05'0 0.0
2018-Nov-09 07:31N 57°09' W 002°05'0 0.9
2018-Nov-09 07:02N 57°09' W 002°05'4 8.2
2018-Nov-09 06:32N 57°11' W 001°58'611.8
2018-Nov-09 06:01N 57°16' W 001°52'22 0.7
2018-Nov-07 21:10N 57°36' W 001°36'215.3
2018-Nov-07 21:01N 57°34' W 001°36'714.9
2018-Nov-07 20:32N 57°27' W 001°37'815.4
2018-Nov-07 20:00N 57°20' W 001°46'715.8
2018-Nov-07 19:32N 57°14' W 001°54'815.3
2018-Nov-07 19:02N 57°09' W 002°04'1 1.8
2018-Nov-07 18:31N 57°09' W 002°05'0 0.0
2018-Nov-07 18:01N 57°09' W 002°05'0 0.0
2018-Nov-07 17:31N 57°09' W 002°05'0 0.0
2018-Nov-07 17:01N 57°09' W 002°05'0 0.0
2018-Nov-07 16:32N 57°09' W 002°05'0 0.0
2018-Nov-07 16:02N 57°09' W 002°05'0 0.0
2018-Nov-07 15:32N 57°09' W 002°05'0 0.0
2018-Nov-07 15:02N 57°09' W 002°05'0 0.0
2018-Nov-07 14:32N 57°09' W 002°05'0 0.0
2018-Nov-07 14:02N 57°09' W 002°05'0 0.0
2018-Nov-07 13:32N 57°09' W 002°05'0 0.0
2018-Nov-07 13:02N 57°09' W 002°05'0 0.0
2018-Nov-07 12:32N 57°09' W 002°05'0 0.0
2018-Nov-07 12:02N 57°09' W 002°05'0 0.0
2018-Nov-07 11:32N 57°09' W 002°05'0 0.0
2018-Nov-07 11:02N 57°09' W 002°05'0 0.0
2018-Nov-07 10:30N 57°09' W 002°05'0 0.0
2018-Nov-07 10:00N 57°09' W 002°05'0 0.0
2018-Nov-07 09:30N 57°09' W 002°05'0 0.0
2018-Nov-07 09:00N 57°09' W 002°05'0 0.0
2018-Nov-07 08:30N 57°09' W 002°05'0 0.0
2018-Nov-07 08:00N 57°09' W 002°05'0 0.0
2018-Nov-07 07:30N 57°09' W 002°05'0 1.0
2018-Nov-07 07:02N 57°09' W 002°05'612.0
2018-Nov-07 06:32N 57°12' W 001°56'2117.2
2018-Nov-07 05:21N 57°30' W 001°36'70 2.5
2018-Nov-06 01:39N 58°39' W 001°29'6514.9
2018-Nov-05 21:16N 57°34' W 001°37'312.0
2018-Nov-05 21:03N 57°32' W 001°38'112.1
2018-Nov-05 20:57N 57°31' W 001°39'612.2
2018-Nov-05 20:30N 57°26' W 001°44'612.6
2018-Nov-05 20:03N 57°21' W 001°48'112.9
2018-Nov-05 19:58N 57°20' W 001°49'613.5
2018-Nov-05 19:31N 57°14' W 001°55'715.3
2018-Nov-05 19:03N 57°09' W 002°03'111.7
2018-Nov-05 19:00N 57°09' W 002°04'1 1.7
2018-Nov-05 18:28N 57°09' W 002°05'0 0.0
2018-Nov-05 18:01N 57°09' W 002°05'0 0.0
2018-Nov-05 17:58N 57°09' W 002°05'0 0.0
2018-Nov-05 17:28N 57°09' W 002°05'0 0.0
2018-Nov-05 17:01N 57°09' W 002°05'0 0.0
2018-Nov-05 16:58N 57°09' W 002°05'0 0.0
2018-Nov-05 16:25N 57°09' W 002°05'0 0.0
2018-Nov-05 16:01N 57°09' W 002°05'0 0.0
2018-Nov-05 15:58N 57°09' W 002°05'0 0.0
2018-Nov-05 15:28N 57°09' W 002°05'0 0.0
2018-Nov-05 15:01N 57°09' W 002°05'0 0.0
2018-Nov-05 14:58N 57°09' W 002°05'0 0.0
2018-Nov-05 14:28N 57°09' W 002°05'0 0.0
2018-Nov-05 14:01N 57°09' W 002°05'0 0.0
2018-Nov-05 13:28N 57°09' W 002°05'0 0.0
2018-Nov-05 13:01N 57°09' W 002°05'0 0.0
2018-Nov-05 12:58N 57°09' W 002°05'0 0.0
2018-Nov-05 12:28N 57°09' W 002°05'0 0.0
2018-Nov-05 12:01N 57°09' W 002°05'0 0.0
2018-Nov-05 11:58N 57°09' W 002°05'0 0.0
2018-Nov-05 11:28N 57°09' W 002°05'0 0.0
2018-Nov-05 11:01N 57°09' W 002°05'0 0.0
2018-Nov-05 10:58N 57°09' W 002°05'0 0.0
2018-Nov-05 10:28N 57°09' W 002°05'0 0.0
2018-Nov-05 10:01N 57°09' W 002°05'0 0.0
2018-Nov-05 09:58N 57°09' W 002°05'0 0.0
2018-Nov-05 09:28N 57°09' W 002°05'0 0.0
2018-Nov-05 09:01N 57°09' W 002°05'0 0.1
2018-Nov-05 08:58N 57°09' W 002°05'0 0.0
2018-Nov-05 08:30N 57°09' W 002°05'0 0.0
2018-Nov-05 08:03N 57°09' W 002°05'0 0.2
2018-Nov-05 08:00N 57°09' W 002°05'0 0.0
2018-Nov-05 07:30N 57°09' W 002°05'0 0.0
2018-Nov-05 07:03N 57°09' W 002°05'0 0.0
2018-Nov-05 07:00N 57°09' W 002°05'1 1.2
2018-Nov-05 06:31N 57°08' W 002°04'612.6
2018-Nov-05 06:03N 57°13' W 001°57'119.1
2018-Nov-05 06:00N 57°13' W 001°56'1318.5
2018-Nov-05 05:17N 57°25' W 001°43'418.2
2018-Nov-05 05:03N 57°29' W 001°41'118.0
2018-Nov-05 05:00N 57°30' W 001°41'15416.0
2018-Nov-04 19:21N 60°03' W 001°07'40 2.6
2018-Nov-04 04:03N 59°23' W 001°20'4115.8
2018-Nov-04 01:26N 59°02' W 002°29'615.5
2018-Nov-04 01:03N 59°01' W 002°40'115.4
2018-Nov-04 01:00N 59°01' W 002°42'714.9
2018-Nov-04 00:31N 59°01' W 002°56'2 3.8
2018-Nov-04 00:00N 58°60' W 002°58'0 0.0
2018-Nov-03 23:30N 58°60' W 002°58'3 6.3
2018-Nov-03 23:03N 59°01' W 002°53'122.7
2018-Nov-03 23:00N 59°01' W 002°51'1019.8
2018-Nov-03 22:28N 58°53' W 002°36'8121.7
2018-Nov-03 18:43N 57°37' W 001°42'419.5
2018-Nov-03 18:30N 57°33' W 001°40'818.5
2018-Nov-03 18:03N 57°25' W 001°41'218.9
2018-Nov-03 17:59N 57°23' W 001°43'919.3
2018-Nov-03 17:30N 57°16' W 001°53'818.5
2018-Nov-03 17:03N 57°09' W 002°02'115.3
2018-Nov-03 17:00N 57°09' W 002°03'1 2.4
2018-Nov-03 16:28N 57°09' W 002°05'0 0.0
2018-Nov-03 16:02N 57°09' W 002°05'0 0.0
2018-Nov-03 15:58N 57°09' W 002°05'0 0.0
2018-Nov-03 15:28N 57°09' W 002°05'0 0.0
2018-Nov-03 15:02N 57°09' W 002°05'0 0.0
2018-Nov-03 14:58N 57°09' W 002°05'0 0.0
2018-Nov-03 14:28N 57°09' W 002°05'0 0.0
2018-Nov-03 14:02N 57°09' W 002°05'0 0.0
2018-Nov-03 13:58N 57°09' W 002°05'0 0.0
2018-Nov-03 13:29N 57°09' W 002°05'0 0.0
2018-Nov-03 13:02N 57°09' W 002°05'0 0.0
2018-Nov-03 12:59N 57°09' W 002°05'0 0.0
2018-Nov-03 12:29N 57°09' W 002°05'0 0.0
2018-Nov-03 12:02N 57°09' W 002°05'0 0.0
2018-Nov-03 11:59N 57°09' W 002°05'0 0.0
2018-Nov-03 11:29N 57°09' W 002°05'0 0.0
2018-Nov-03 11:02N 57°09' W 002°05'0 0.0
2018-Nov-03 10:59N 57°09' W 002°05'0 0.0
2018-Nov-03 10:29N 57°09' W 002°05'0 0.0
2018-Nov-03 10:02N 57°09' W 002°05'0 0.0
2018-Nov-03 09:59N 57°09' W 002°05'0 0.0
2018-Nov-03 09:29N 57°09' W 002°05'0 0.0
2018-Nov-03 09:02N 57°09' W 002°05'0 0.0
2018-Nov-03 08:59N 57°09' W 002°05'0 0.0
2018-Nov-03 08:29N 57°09' W 002°05'0 0.0
2018-Nov-03 08:02N 57°09' W 002°05'0 0.0
2018-Nov-03 07:59N 57°09' W 002°05'0 0.0
2018-Nov-03 07:29N 57°09' W 002°05'0 0.0
2018-Nov-03 07:03N 57°09' W 002°05'0 0.0
2018-Nov-03 07:00N 57°09' W 002°05'2 3.5
2018-Nov-03 06:30N 57°09' W 002°02'919.0
2018-Nov-03 06:03N 57°15' W 001°51'120.6
2018-Nov-03 06:00N 57°16' W 001°50'1320.1
2018-Nov-03 05:23N 57°26' W 001°38'720.7
2018-Nov-03 05:03N 57°33' W 001°41'120.8
2018-Nov-03 05:00N 57°34' W 001°41'8820.4
2018-Nov-03 00:41N 58°57' W 002°37'419.4
2018-Nov-03 00:30N 58°60' W 002°42'818.9
2018-Nov-03 00:03N 59°01' W 002°58'111.0
2018-Nov-03 00:00N 58°60' W 002°58'0 0.2
2018-Nov-02 23:25N 58°60' W 002°58'0 0.0
2018-Nov-02 23:01N 58°60' W 002°58'0 0.0
2018-Nov-02 23:00N 58°60' W 002°58'611.8
2018-Nov-02 22:30N 59°00' W 002°47'11 0.5
2018-Nov-02 01:16N 59°04' W 002°28'313.4
2018-Nov-02 01:03N 59°02' W 002°31'113.3
2018-Nov-02 00:59N 59°01' W 002°32'314.8
2018-Nov-02 00:45N 59°01' W 002°39'215.2
2018-Nov-02 00:36N 59°00' W 002°43'115.0
2018-Nov-02 00:31N 59°00' W 002°46'613.5
2018-Nov-02 00:03N 59°00' W 002°58'0 8.4
2018-Nov-02 00:00N 58°60' W 002°58'0 0.3
2018-Nov-01 23:30N 58°60' W 002°58'0 0.0
2018-Nov-01 23:03N 58°60' W 002°58'0 0.1
2018-Nov-01 23:00N 58°60' W 002°58'510.5
2018-Nov-01 22:30N 59°00' W 002°48'919.0
2018-Nov-01 22:02N 58°54' W 002°35'123.0
2018-Nov-01 22:01N 58°54' W 002°35'7922.6
2018-Nov-01 18:31N 57°39' W 001°45'121.6
2018-Nov-01 18:29N 57°39' W 001°45'921.5
2018-Nov-01 18:03N 57°29' W 001°43'121.5
2018-Nov-01 18:00N 57°28' W 001°43'1121.6
2018-Nov-01 17:29N 57°18' W 001°52'1022.1
2018-Nov-01 17:03N 57°10' W 002°01'121.2
2018-Nov-01 17:00N 57°09' W 002°02'2 3.8
2018-Nov-01 16:30N 57°09' W 002°05'0 0.0
2018-Nov-01 16:01N 57°09' W 002°05'0 0.0
2018-Nov-01 15:58N 57°09' W 002°05'0 0.0
2018-Nov-01 15:28N 57°09' W 002°05'0 0.0
2018-Nov-01 15:01N 57°09' W 002°05'0 0.0
2018-Nov-01 14:58N 57°09' W 002°05'0 0.0
2018-Nov-01 14:01N 57°09' W 002°05'0 0.1
2018-Nov-01 13:58N 57°09' W 002°05'0 0.0
2018-Nov-01 13:28N 57°09' W 002°05'0 0.0
2018-Nov-01 13:01N 57°09' W 002°05'0 0.0
2018-Nov-01 12:58N 57°09' W 002°05'0 0.0
2018-Nov-01 12:28N 57°09' W 002°05'0 0.0
2018-Nov-01 12:01N 57°09' W 002°05'0 0.0
2018-Nov-01 11:58N 57°09' W 002°05'0 0.0
2018-Nov-01 11:28N 57°09' W 002°05'0 0.0
2018-Nov-01 11:01N 57°09' W 002°05'0 0.0
2018-Nov-01 10:59N 57°09' W 002°05'0 0.0
2018-Nov-01 10:29N 57°09' W 002°05'0 0.0
2018-Nov-01 10:01N 57°09' W 002°05'0 0.0
2018-Nov-01 09:59N 57°09' W 002°05'0 0.0
2018-Nov-01 09:29N 57°09' W 002°05'0 0.0
2018-Nov-01 09:01N 57°09' W 002°05'0 0.0
2018-Nov-01 08:59N 57°09' W 002°05'0 0.0
2018-Nov-01 08:29N 57°09' W 002°05'0 0.0
2018-Nov-01 08:01N 57°09' W 002°05'0 0.2
2018-Nov-01 07:59N 57°09' W 002°05'0 0.0
2018-Nov-01 07:29N 57°09' W 002°05'0 0.0
2018-Nov-01 07:01N 57°09' W 002°05'0 0.3
2018-Nov-01 06:58N 57°09' W 002°05'1 1.2
2018-Nov-01 06:30N 57°09' W 002°04'613.3
2018-Nov-01 06:03N 57°13' W 001°56'116.4
2018-Nov-01 06:00N 57°13' W 001°55'1416.3
2018-Nov-01 05:09N 57°25' W 001°42'116.6
2018-Nov-01 05:03N 57°27' W 001°41'117.0
2018-Nov-01 05:00N 57°28' W 001°41'9320.5
2018-Nov-01 00:29N 58°56' W 002°37'819.4
2018-Nov-01 00:03N 59°01' W 002°50'120.8
2018-Nov-01 00:00N 59°01' W 002°52'3 6.9
2018-Oct-31 23:30N 58°60' W 002°58'  
Track history (hours):
 
Tides and Currents Weather Stations Pressure Air Temp Water Temp Dewpoint Dewpoint Depression Visibility Wind Speed Wind Dir Waves Ship Positions

Hrossey

Operator: NorthLink Orkey & Shetland Ferries Ltd

Last reported at 2018-Nov-10 23:27 UTC. Time now 2018-Nov-13 07:48 UTC.
Position N 58°59' W 001°22'.

Length 125 m; draft 5.4 m.

Type: Ship. MMSI: 235448000.

Date/timePositionNaut miles runAvg speedWind from/ knotsBaromVisibWave heightAir tempDewpointWater temp
2018-Nov-10 23:27N 58°59' W 001°22'4616.3
2018-Nov-10 20:39N 59°44' W 001°06'1015.0
2018-Nov-10 19:57N 59°55' W 001°04'36 4.4
2018-Nov-10 11:51N 59°19' W 001°00'1916.0
2018-Nov-10 10:39N 58°60' W 000°60'9416.3
2018-Nov-10 04:52N 57°27' W 001°32'1217.1
2018-Nov-10 04:09N 57°18' W 001°47'216.9
2018-Nov-10 04:02N 57°16' W 001°49'816.5
2018-Nov-10 03:32N 57°11' W 001°60'3 6.6
2018-Nov-10 03:00N 57°09' W 002°05'0 0.0
2018-Nov-10 02:31N 57°09' W 002°05'0 0.0
2018-Nov-10 02:01N 57°09' W 002°05'0 0.0
2018-Nov-10 01:31N 57°09' W 002°05'0 0.0
2018-Nov-10 01:01N 57°09' W 002°05'0 0.0
2018-Nov-10 00:31N 57°09' W 002°05'0 0.0
2018-Nov-10 00:01N 57°09' W 002°05'0 0.0
2018-Nov-09 23:30N 57°09' W 002°05'0 0.0
2018-Nov-09 23:01N 57°09' W 002°05'0 0.0
2018-Nov-09 22:31N 57°09' W 002°05'0 0.0
2018-Nov-09 22:01N 57°09' W 002°05'0 0.0
2018-Nov-09 21:31N 57°09' W 002°05'0 0.0
2018-Nov-09 20:58N 57°09' W 002°05'0 0.0
2018-Nov-09 20:28N 57°09' W 002°05'0 0.0
2018-Nov-09 20:00N 57°09' W 002°05'0 0.0
2018-Nov-09 19:28N 57°09' W 002°05'0 0.0
2018-Nov-09 19:01N 57°09' W 002°05'0 0.0
2018-Nov-09 18:31N 57°09' W 002°05'0 0.0
2018-Nov-09 18:01N 57°09' W 002°05'0 0.0
2018-Nov-09 17:31N 57°09' W 002°05'0 0.0
2018-Nov-09 17:00N 57°09' W 002°05'0 0.0
2018-Nov-09 16:30N 57°09' W 002°05'0 0.0
2018-Nov-09 16:01N 57°09' W 002°05'0 0.0
2018-Nov-09 15:31N 57°09' W 002°05'0 0.0
2018-Nov-09 15:01N 57°09' W 002°05'0 0.0
2018-Nov-09 14:31N 57°09' W 002°05'0 0.0
2018-Nov-09 14:01N 57°09' W 002°05'0 0.0
2018-Nov-09 13:31N 57°09' W 002°05'0 0.0
2018-Nov-09 13:01N 57°09' W 002°05'0 0.0
2018-Nov-09 12:30N 57°09' W 002°05'0 0.0
2018-Nov-09 12:01N 57°09' W 002°05'0 0.0
2018-Nov-09 11:30N 57°09' W 002°05'0 0.0
2018-Nov-09 11:01N 57°09' W 002°05'0 0.0
2018-Nov-09 10:31N 57°09' W 002°05'0 0.0
2018-Nov-09 10:01N 57°09' W 002°05'0 0.0
2018-Nov-09 09:30N 57°09' W 002°05'0 0.0
2018-Nov-09 09:01N 57°09' W 002°05'0 0.0
2018-Nov-09 08:31N 57°09' W 002°05'0 0.0
2018-Nov-09 08:01N 57°09' W 002°05'0 0.0
2018-Nov-09 07:31N 57°09' W 002°05'0 0.9
2018-Nov-09 07:02N 57°09' W 002°05'4 8.2
2018-Nov-09 06:32N 57°11' W 001°58'611.8
2018-Nov-09 06:01N 57°16' W 001°52'22 0.7
2018-Nov-07 21:10N 57°36' W 001°36'215.3
2018-Nov-07 21:01N 57°34' W 001°36'714.9
2018-Nov-07 20:32N 57°27' W 001°37'815.4
2018-Nov-07 20:00N 57°20' W 001°46'715.8
2018-Nov-07 19:32N 57°14' W 001°54'815.3
2018-Nov-07 19:02N 57°09' W 002°04'1 1.8
2018-Nov-07 18:31N 57°09' W 002°05'0 0.0
2018-Nov-07 18:01N 57°09' W 002°05'0 0.0
2018-Nov-07 17:31N 57°09' W 002°05'0 0.0
2018-Nov-07 17:01N 57°09' W 002°05'0 0.0
2018-Nov-07 16:32N 57°09' W 002°05'0 0.0
2018-Nov-07 16:02N 57°09' W 002°05'0 0.0
2018-Nov-07 15:32N 57°09' W 002°05'0 0.0
2018-Nov-07 15:02N 57°09' W 002°05'0 0.0
2018-Nov-07 14:32N 57°09' W 002°05'0 0.0
2018-Nov-07 14:02N 57°09' W 002°05'0 0.0
2018-Nov-07 13:32N 57°09' W 002°05'0 0.0
2018-Nov-07 13:02N 57°09' W 002°05'0 0.0
2018-Nov-07 12:32N 57°09' W 002°05'0 0.0
2018-Nov-07 12:02N 57°09' W 002°05'0 0.0
2018-Nov-07 11:32N 57°09' W 002°05'0 0.0
2018-Nov-07 11:02N 57°09' W 002°05'0 0.0
2018-Nov-07 10:30N 57°09' W 002°05'0 0.0
2018-Nov-07 10:00N 57°09' W 002°05'0 0.0
2018-Nov-07 09:30N 57°09' W 002°05'0 0.0
2018-Nov-07 09:00N 57°09' W 002°05'0 0.0
2018-Nov-07 08:30N 57°09' W 002°05'0 0.0
2018-Nov-07 08:00N 57°09' W 002°05'0 0.0
2018-Nov-07 07:30N 57°09' W 002°05'0 1.0
2018-Nov-07 07:02N 57°09' W 002°05'612.0
2018-Nov-07 06:32N 57°12' W 001°56'2117.2
2018-Nov-07 05:21N 57°30' W 001°36'70 2.5
2018-Nov-06 01:39N 58°39' W 001°29'6514.9
2018-Nov-05 21:16N 57°34' W 001°37'312.0
2018-Nov-05 21:03N 57°32' W 001°38'112.1
2018-Nov-05 20:57N 57°31' W 001°39'612.2
2018-Nov-05 20:30N 57°26' W 001°44'612.6
2018-Nov-05 20:03N 57°21' W 001°48'112.9
2018-Nov-05 19:58N 57°20' W 001°49'613.5
2018-Nov-05 19:31N 57°14' W 001°55'715.3
2018-Nov-05 19:03N 57°09' W 002°03'111.7
2018-Nov-05 19:00N 57°09' W 002°04'1 1.7
2018-Nov-05 18:28N 57°09' W 002°05'0 0.0
2018-Nov-05 18:01N 57°09' W 002°05'0 0.0
2018-Nov-05 17:58N 57°09' W 002°05'0 0.0
2018-Nov-05 17:28N 57°09' W 002°05'0 0.0
2018-Nov-05 17:01N 57°09' W 002°05'0 0.0
2018-Nov-05 16:58N 57°09' W 002°05'0 0.0
2018-Nov-05 16:25N 57°09' W 002°05'0 0.0
2018-Nov-05 16:01N 57°09' W 002°05'0 0.0
2018-Nov-05 15:58N 57°09' W 002°05'0 0.0
2018-Nov-05 15:28N 57°09' W 002°05'0 0.0
2018-Nov-05 15:01N 57°09' W 002°05'0 0.0
2018-Nov-05 14:58N 57°09' W 002°05'0 0.0
2018-Nov-05 14:28N 57°09' W 002°05'0 0.0
2018-Nov-05 14:01N 57°09' W 002°05'0 0.0
2018-Nov-05 13:28N 57°09' W 002°05'0 0.0
2018-Nov-05 13:01N 57°09' W 002°05'0 0.0
2018-Nov-05 12:58N 57°09' W 002°05'0 0.0
2018-Nov-05 12:28N 57°09' W 002°05'0 0.0
2018-Nov-05 12:01N 57°09' W 002°05'0 0.0
2018-Nov-05 11:58N 57°09' W 002°05'0 0.0
2018-Nov-05 11:28N 57°09' W 002°05'0 0.0
2018-Nov-05 11:01N 57°09' W 002°05'0 0.0
2018-Nov-05 10:58N 57°09' W 002°05'0 0.0
2018-Nov-05 10:28N 57°09' W 002°05'0 0.0
2018-Nov-05 10:01N 57°09' W 002°05'0 0.0
2018-Nov-05 09:58N 57°09' W 002°05'0 0.0
2018-Nov-05 09:28N 57°09' W 002°05'0 0.0
2018-Nov-05 09:01N 57°09' W 002°05'0 0.1
2018-Nov-05 08:58N 57°09' W 002°05'0 0.0
2018-Nov-05 08:30N 57°09' W 002°05'0 0.0
2018-Nov-05 08:03N 57°09' W 002°05'0 0.2
2018-Nov-05 08:00N 57°09' W 002°05'0 0.0
2018-Nov-05 07:30N 57°09' W 002°05'0 0.0
2018-Nov-05 07:03N 57°09' W 002°05'0 0.0
2018-Nov-05 07:00N 57°09' W 002°05'1 1.2
2018-Nov-05 06:31N 57°08' W 002°04'612.6
2018-Nov-05 06:03N 57°13' W 001°57'119.1
2018-Nov-05 06:00N 57°13' W 001°56'1318.5
2018-Nov-05 05:17N 57°25' W 001°43'418.2
2018-Nov-05 05:03N 57°29' W 001°41'118.0
2018-Nov-05 05:00N 57°30' W 001°41'15416.0
2018-Nov-04 19:21N 60°03' W 001°07'40 2.6
2018-Nov-04 04:03N 59°23' W 001°20'4115.8
2018-Nov-04 01:26N 59°02' W 002°29'615.5
2018-Nov-04 01:03N 59°01' W 002°40'115.4
2018-Nov-04 01:00N 59°01' W 002°42'714.9
2018-Nov-04 00:31N 59°01' W 002°56'2 3.8
2018-Nov-04 00:00N 58°60' W 002°58'0 0.0
2018-Nov-03 23:30N 58°60' W 002°58'3 6.3
2018-Nov-03 23:03N 59°01' W 002°53'122.7
2018-Nov-03 23:00N 59°01' W 002°51'1019.8
2018-Nov-03 22:28N 58°53' W 002°36'8121.7
2018-Nov-03 18:43N 57°37' W 001°42'419.5
2018-Nov-03 18:30N 57°33' W 001°40'818.5
2018-Nov-03 18:03N 57°25' W 001°41'218.9
2018-Nov-03 17:59N 57°23' W 001°43'919.3
2018-Nov-03 17:30N 57°16' W 001°53'818.5
2018-Nov-03 17:03N 57°09' W 002°02'115.3
2018-Nov-03 17:00N 57°09' W 002°03'1 2.4
2018-Nov-03 16:28N 57°09' W 002°05'0 0.0
2018-Nov-03 16:02N 57°09' W 002°05'0 0.0
2018-Nov-03 15:58N 57°09' W 002°05'0 0.0
2018-Nov-03 15:28N 57°09' W 002°05'0 0.0
2018-Nov-03 15:02N 57°09' W 002°05'0 0.0
2018-Nov-03 14:58N 57°09' W 002°05'0 0.0
2018-Nov-03 14:28N 57°09' W 002°05'0 0.0
2018-Nov-03 14:02N 57°09' W 002°05'0 0.0
2018-Nov-03 13:58N 57°09' W 002°05'0 0.0
2018-Nov-03 13:29N 57°09' W 002°05'0 0.0
2018-Nov-03 13:02N 57°09' W 002°05'0 0.0
2018-Nov-03 12:59N 57°09' W 002°05'0 0.0
2018-Nov-03 12:29N 57°09' W 002°05'0 0.0
2018-Nov-03 12:02N 57°09' W 002°05'0 0.0
2018-Nov-03 11:59N 57°09' W 002°05'0 0.0
2018-Nov-03 11:29N 57°09' W 002°05'0 0.0
2018-Nov-03 11:02N 57°09' W 002°05'0 0.0
2018-Nov-03 10:59N 57°09' W 002°05'0 0.0
2018-Nov-03 10:29N 57°09' W 002°05'0 0.0
2018-Nov-03 10:02N 57°09' W 002°05'0 0.0
2018-Nov-03 09:59N 57°09' W 002°05'0 0.0
2018-Nov-03 09:29N 57°09' W 002°05'0 0.0
2018-Nov-03 09:02N 57°09' W 002°05'0 0.0
2018-Nov-03 08:59N 57°09' W 002°05'0 0.0
2018-Nov-03 08:29N 57°09' W 002°05'0 0.0
2018-Nov-03 08:02N 57°09' W 002°05'0 0.0
2018-Nov-03 07:59N 57°09' W 002°05'0 0.0
2018-Nov-03 07:29N 57°09' W 002°05'0 0.0
2018-Nov-03 07:03N 57°09' W 002°05'0 0.0
2018-Nov-03 07:00N 57°09' W 002°05'2 3.5
2018-Nov-03 06:30N 57°09' W 002°02'919.0
2018-Nov-03 06:03N 57°15' W 001°51'120.6
2018-Nov-03 06:00N 57°16' W 001°50'1320.1
2018-Nov-03 05:23N 57°26' W 001°38'720.7
2018-Nov-03 05:03N 57°33' W 001°41'120.8
2018-Nov-03 05:00N 57°34' W 001°41'8820.4
2018-Nov-03 00:41N 58°57' W 002°37'419.4
2018-Nov-03 00:30N 58°60' W 002°42'818.9
2018-Nov-03 00:03N 59°01' W 002°58'111.0
2018-Nov-03 00:00N 58°60' W 002°58'0 0.2
2018-Nov-02 23:25N 58°60' W 002°58'0 0.0
2018-Nov-02 23:01N 58°60' W 002°58'0 0.0
2018-Nov-02 23:00N 58°60' W 002°58'611.8
2018-Nov-02 22:30N 59°00' W 002°47'11 0.5
2018-Nov-02 01:16N 59°04' W 002°28'313.4
2018-Nov-02 01:03N 59°02' W 002°31'113.3
2018-Nov-02 00:59N 59°01' W 002°32'314.8
2018-Nov-02 00:45N 59°01' W 002°39'215.2
2018-Nov-02 00:36N 59°00' W 002°43'115.0
2018-Nov-02 00:31N 59°00' W 002°46'613.5
2018-Nov-02 00:03N 59°00' W 002°58'0 8.4
2018-Nov-02 00:00N 58°60' W 002°58'0 0.3
2018-Nov-01 23:30N 58°60' W 002°58'0 0.0
2018-Nov-01 23:03N 58°60' W 002°58'0 0.1
2018-Nov-01 23:00N 58°60' W 002°58'510.5
2018-Nov-01 22:30N 59°00' W 002°48'919.0
2018-Nov-01 22:02N 58°54' W 002°35'123.0
2018-Nov-01 22:01N 58°54' W 002°35'7922.6
2018-Nov-01 18:31N 57°39' W 001°45'121.6
2018-Nov-01 18:29N 57°39' W 001°45'921.5
2018-Nov-01 18:03N 57°29' W 001°43'121.5
2018-Nov-01 18:00N 57°28' W 001°43'1121.6
2018-Nov-01 17:29N 57°18' W 001°52'1022.1
2018-Nov-01 17:03N 57°10' W 002°01'121.2
2018-Nov-01 17:00N 57°09' W 002°02'2 3.8
2018-Nov-01 16:30N 57°09' W 002°05'0 0.0
2018-Nov-01 16:01N 57°09' W 002°05'0 0.0
2018-Nov-01 15:58N 57°09' W 002°05'0 0.0
2018-Nov-01 15:28N 57°09' W 002°05'0 0.0
2018-Nov-01 15:01N 57°09' W 002°05'0 0.0
2018-Nov-01 14:58N 57°09' W 002°05'0 0.0
2018-Nov-01 14:01N 57°09' W 002°05'0 0.1
2018-Nov-01 13:58N 57°09' W 002°05'0 0.0
2018-Nov-01 13:28N 57°09' W 002°05'0 0.0
2018-Nov-01 13:01N 57°09' W 002°05'0 0.0
2018-Nov-01 12:58N 57°09' W 002°05'0 0.0
2018-Nov-01 12:28N 57°09' W 002°05'0 0.0
2018-Nov-01 12:01N 57°09' W 002°05'0 0.0
2018-Nov-01 11:58N 57°09' W 002°05'0 0.0
2018-Nov-01 11:28N 57°09' W 002°05'0 0.0
2018-Nov-01 11:01N 57°09' W 002°05'0 0.0
2018-Nov-01 10:59N 57°09' W 002°05'0 0.0
2018-Nov-01 10:29N 57°09' W 002°05'0 0.0
2018-Nov-01 10:01N 57°09' W 002°05'0 0.0
2018-Nov-01 09:59N 57°09' W 002°05'0 0.0
2018-Nov-01 09:29N 57°09' W 002°05'0 0.0
2018-Nov-01 09:01N 57°09' W 002°05'0 0.0
2018-Nov-01 08:59N 57°09' W 002°05'0 0.0
2018-Nov-01 08:29N 57°09' W 002°05'0 0.0
2018-Nov-01 08:01N 57°09' W 002°05'0 0.2
2018-Nov-01 07:59N 57°09' W 002°05'0 0.0
2018-Nov-01 07:29N 57°09' W 002°05'0 0.0
2018-Nov-01 07:01N 57°09' W 002°05'0 0.3
2018-Nov-01 06:58N 57°09' W 002°05'1 1.2
2018-Nov-01 06:30N 57°09' W 002°04'613.3
2018-Nov-01 06:03N 57°13' W 001°56'116.4
2018-Nov-01 06:00N 57°13' W 001°55'1416.3
2018-Nov-01 05:09N 57°25' W 001°42'116.6
2018-Nov-01 05:03N 57°27' W 001°41'117.0
2018-Nov-01 05:00N 57°28' W 001°41'9320.5
2018-Nov-01 00:29N 58°56' W 002°37'819.4
2018-Nov-01 00:03N 59°01' W 002°50'120.8
2018-Nov-01 00:00N 59°01' W 002°52'3 6.9
2018-Oct-31 23:30N 58°60' W 002°58'  

Dump ship's entire track history